Time;durP1;ratioP1;P1;durP2;ratioP2;P2;SDS_P1;SDS_P2;PMS_P1;PMS_P2;Temp;Humidity;BMP_temperature;BMP_pressure;BME280_temperature;BME280_humidity;BME280_pressure;Samples;Min_cycle;Max_cycle;Signal;HPM_P1;HPM_P2
2023/10/29 00:01:41;;;;;;;2.45;0.93;;;21.60;56.30;;;;;;5037382;28;20053;-66
2023/10/29 00:04:07;;;;;;;1.63;0.90;;;21.60;56.40;;;;;;5039195;28;20025;-66
2023/10/29 00:06:34;;;;;;;2.13;1.10;;;21.60;56.40;;;;;;5040839;28;20469;-67
2023/10/29 00:09:00;;;;;;;1.88;1.00;;;21.60;56.40;;;;;;5039706;28;20569;-66
2023/10/29 00:11:25;;;;;;;1.52;0.90;;;21.60;56.40;;;;;;5038317;28;20116;-67
2023/10/29 00:13:51;;;;;;;1.50;0.93;;;21.60;56.40;;;;;;5039925;28;20041;-66
2023/10/29 00:16:17;;;;;;;1.60;1.00;;;21.60;56.40;;;;;;5036541;28;20040;-66
2023/10/29 00:18:43;;;;;;;1.77;1.08;;;21.60;56.40;;;;;;5037034;28;20626;-67
2023/10/29 00:21:09;;;;;;;3.22;1.23;;;21.60;56.40;;;;;;5038488;28;20112;-67
2023/10/29 00:23:34;;;;;;;2.75;0.90;;;21.60;56.40;;;;;;5039891;28;20034;-67
2023/10/29 00:26:00;;;;;;;2.20;1.00;;;21.50;56.40;;;;;;5038015;28;20555;-67
2023/10/29 00:28:25;;;;;;;1.30;0.90;;;21.50;56.40;;;;;;5037673;28;20084;-67
2023/10/29 00:30:54;;;;;;;1.52;1.00;;;21.50;56.40;;;;;;5038444;28;20504;-67
2023/10/29 00:33:20;;;;;;;1.98;1.08;;;21.50;56.40;;;;;;5037215;28;20033;-67
2023/10/29 00:35:46;;;;;;;2.10;0.90;;;21.50;56.40;;;;;;5037997;28;20642;-67
2023/10/29 00:38:11;;;;;;;1.70;0.90;;;21.50;56.50;;;;;;5037897;28;20025;-67
2023/10/29 00:40:38;;;;;;;1.85;1.10;;;21.50;56.50;;;;;;5038222;28;20160;-67
2023/10/29 00:43:04;;;;;;;2.13;1.02;;;21.50;56.50;;;;;;5038497;28;20017;-67
2023/10/29 00:45:29;;;;;;;2.03;1.00;;;21.50;56.50;;;;;;5039209;28;20033;-67
2023/10/29 00:47:56;;;;;;;1.77;1.00;;;21.40;56.50;;;;;;5038008;28;20477;-67
2023/10/29 00:50:21;;;;;;;2.50;1.20;;;21.50;56.60;;;;;;5039046;28;20452;-67
2023/10/29 00:52:47;;;;;;;1.40;0.90;;;21.40;56.50;;;;;;5037902;28;20100;-67
2023/10/29 00:55:13;;;;;;;2.15;1.02;;;21.40;56.50;;;;;;5052795;28;20334;-66
2023/10/29 00:57:40;;;;;;;1.90;1.02;;;21.40;56.50;;;;;;5038493;28;20122;-66
2023/10/29 01:00:06;;;;;;;1.55;0.80;;;21.40;56.50;;;;;;5037428;28;20462;-66
2023/10/29 01:02:33;;;;;;;2.03;0.95;;;21.40;56.50;;;;;;5038001;28;20436;-66
2023/10/29 01:05:00;;;;;;;2.13;1.17;;;21.40;56.60;;;;;;5039699;28;20037;-67
2023/10/29 01:07:26;;;;;;;1.33;0.90;;;21.40;56.60;;;;;;5038184;28;20507;-66
2023/10/29 01:09:52;;;;;;;1.42;0.90;;;21.40;56.60;;;;;;5039827;28;20037;-66
2023/10/29 01:12:19;;;;;;;1.65;0.90;;;21.30;56.50;;;;;;5036995;28;20326;-66
2023/10/29 01:14:44;;;;;;;1.45;0.80;;;21.40;56.60;;;;;;5037565;28;20392;-66
2023/10/29 01:17:10;;;;;;;1.05;0.85;;;21.40;56.60;;;;;;5038595;28;20083;-66
2023/10/29 01:19:36;;;;;;;1.90;1.08;;;21.40;56.60;;;;;;5037442;28;20060;-66
2023/10/29 01:22:01;;;;;;;1.90;1.08;;;21.30;56.60;;;;;;5036746;28;20033;-66
2023/10/29 01:24:28;;;;;;;2.28;1.00;;;21.30;56.60;;;;;;5038124;28;20032;-66
2023/10/29 01:26:54;;;;;;;1.52;1.00;;;21.30;56.60;;;;;;5037193;28;20021;-67
2023/10/29 01:29:20;;;;;;;1.58;0.90;;;21.30;56.60;;;;;;5038020;28;20032;-66
2023/10/29 01:31:48;;;;;;;1.77;1.00;;;21.30;56.60;;;;;;5040238;28;20175;-66
2023/10/29 01:34:14;;;;;;;1.92;0.90;;;21.30;56.60;;;;;;5038509;28;20504;-66
2023/10/29 01:36:40;;;;;;;2.03;1.05;;;21.30;56.60;;;;;;5037695;28;20029;-66
2023/10/29 01:39:06;;;;;;;2.10;1.00;;;21.30;56.60;;;;;;5039320;28;20029;-66
2023/10/29 01:41:32;;;;;;;1.92;1.00;;;21.30;56.60;;;;;;5038322;28;20038;-66
2023/10/29 01:43:58;;;;;;;1.48;1.00;;;21.30;56.60;;;;;;5038280;28;20470;-66
2023/10/29 01:46:24;;;;;;;1.40;0.90;;;21.30;56.60;;;;;;5038662;28;20047;-66
2023/10/29 01:48:49;;;;;;;1.80;0.90;;;21.20;56.60;;;;;;5042615;28;20053;-66
2023/10/29 01:51:15;;;;;;;2.05;1.00;;;21.20;56.60;;;;;;5041535;28;20102;-66
2023/10/29 01:53:41;;;;;;;1.90;1.00;;;21.30;56.60;;;;;;5042042;28;20445;-66
2023/10/29 01:56:07;;;;;;;1.67;1.00;;;21.20;56.60;;;;;;5040806;28;20029;-66
2023/10/29 01:58:33;;;;;;;1.48;0.90;;;21.20;56.60;;;;;;5041375;28;20416;-66
2023/10/29 02:00:59;;;;;;;1.65;1.00;;;21.20;56.60;;;;;;5043458;28;20571;-66
2023/10/29 02:03:26;;;;;;;1.88;1.08;;;21.20;56.60;;;;;;5041554;28;20036;-66
2023/10/29 02:05:52;;;;;;;1.30;0.80;;;21.20;56.60;;;;;;5042011;28;20030;-66
2023/10/29 02:08:18;;;;;;;1.73;1.05;;;21.20;56.60;;;;;;5043381;28;20401;-67
2023/10/29 02:10:44;;;;;;;1.70;0.93;;;21.20;56.60;;;;;;5042771;28;20059;-67
2023/10/29 02:13:10;;;;;;;1.55;0.90;;;21.20;56.60;;;;;;5040874;28;20415;-67
2023/10/29 02:15:35;;;;;;;1.70;0.95;;;21.20;56.60;;;;;;5040531;28;20026;-67
2023/10/29 02:18:01;;;;;;;1.98;1.25;;;21.20;56.60;;;;;;5040823;28;20032;-66
2023/10/29 02:20:27;;;;;;;1.83;1.10;;;21.20;56.60;;;;;;5038783;28;20484;-67
2023/10/29 02:22:52;;;;;;;2.20;1.10;;;21.20;56.60;;;;;;5041402;28;20036;-67
2023/10/29 02:25:18;;;;;;;1.20;0.80;;;21.20;56.60;;;;;;5040982;28;20029;-66
2023/10/29 02:27:43;;;;;;;1.70;0.90;;;21.10;56.60;;;;;;5041041;28;20030;-65
2023/10/29 02:30:10;;;;;;;1.58;1.00;;;21.10;56.60;;;;;;5040450;28;20036;-64
2023/10/29 02:32:36;;;;;;;1.90;0.85;;;21.10;56.60;;;;;;5040082;28;20453;-65
2023/10/29 02:35:02;;;;;;;1.20;0.82;;;21.10;56.60;;;;;;5042871;28;20100;-65
2023/10/29 02:37:28;;;;;;;2.03;1.10;;;21.10;56.60;;;;;;5042485;28;20116;-64
2023/10/29 02:39:53;;;;;;;2.10;1.08;;;21.10;56.60;;;;;;5041009;28;20482;-65
2023/10/29 02:42:19;;;;;;;2.45;1.00;;;21.20;56.70;;;;;;5042695;28;20603;-66
2023/10/29 02:44:44;;;;;;;2.10;1.10;;;21.10;56.60;;;;;;5041055;28;20025;-65
2023/10/29 02:47:10;;;;;;;2.25;1.08;;;21.10;56.60;;;;;;5039024;28;20119;-65
2023/10/29 02:49:36;;;;;;;1.70;1.00;;;21.10;56.60;;;;;;5041937;28;20075;-65
2023/10/29 02:52:01;;;;;;;2.20;1.30;;;21.10;56.60;;;;;;5040840;28;20037;-65
2023/10/29 02:54:27;;;;;;;1.48;0.90;;;21.10;56.60;;;;;;5041467;28;20048;-64
2023/10/29 02:56:53;;;;;;;1.45;0.88;;;21.10;56.60;;;;;;5041447;28;20073;-65
2023/10/29 02:59:21;;;;;;;1.23;0.82;;;21.10;56.60;;;;;;5040006;28;20143;-65
2023/10/29 03:01:46;;;;;;;1.42;0.90;;;21.10;56.60;;;;;;5037795;28;20065;-65
2023/10/29 03:04:12;;;;;;;2.03;1.00;;;21.10;56.60;;;;;;5041264;28;20063;-66
2023/10/29 03:06:39;;;;;;;1.17;0.88;;;21.10;56.60;;;;;;5042026;28;20031;-64
2023/10/29 03:09:05;;;;;;;1.15;0.85;;;21.10;56.60;;;;;;5041569;28;20374;-65
2023/10/29 03:11:30;;;;;;;2.13;1.00;;;21.10;56.60;;;;;;5041046;28;20033;-65
2023/10/29 03:13:57;;;;;;;1.20;0.80;;;21.10;56.60;;;;;;5037612;28;20036;-65
2023/10/29 03:16:23;;;;;;;1.35;0.90;;;21.10;56.60;;;;;;5041328;28;20064;-66
2023/10/29 03:18:48;;;;;;;1.70;1.02;;;21.00;56.60;;;;;;5039296;28;20064;-66
2023/10/29 03:21:16;;;;;;;1.70;0.88;;;21.00;56.50;;;;;;5041846;28;20520;-66
2023/10/29 03:23:42;;;;;;;1.30;0.82;;;21.00;56.50;;;;;;5041109;28;20109;-66
2023/10/29 03:26:08;;;;;;;1.75;0.90;;;21.00;56.60;;;;;;5041111;28;20077;-66
2023/10/29 03:28:35;;;;;;;1.65;0.90;;;21.00;56.60;;;;;;5039021;28;20028;-66
2023/10/29 03:31:01;;;;;;;1.80;1.17;;;21.00;56.60;;;;;;5040265;28;20975;-66
2023/10/29 03:33:26;;;;;;;1.40;0.90;;;21.00;56.60;;;;;;5039937;28;20017;-66
2023/10/29 03:35:52;;;;;;;1.42;1.00;;;21.00;56.60;;;;;;5041138;28;20430;-65
2023/10/29 03:38:18;;;;;;;2.00;1.00;;;21.00;56.60;;;;;;5039263;28;20093;-64
2023/10/29 03:40:44;;;;;;;1.42;0.82;;;21.00;56.60;;;;;;5040115;28;20083;-65
2023/10/29 03:43:09;;;;;;;1.67;1.08;;;21.00;56.60;;;;;;5040593;28;20035;-66
2023/10/29 03:45:35;;;;;;;2.10;1.20;;;21.00;56.60;;;;;;5039400;28;20504;-64
2023/10/29 03:48:01;;;;;;;1.52;0.90;;;21.00;56.60;;;;;;5040731;28;20120;-64
2023/10/29 03:50:27;;;;;;;1.42;0.80;;;21.00;56.60;;;;;;5040959;28;20093;-64
2023/10/29 03:52:52;;;;;;;1.45;0.95;;;21.00;56.60;;;;;;5039644;28;20029;-66
2023/10/29 03:55:19;;;;;;;1.25;0.93;;;21.00;56.60;;;;;;5038969;28;20042;-64
2023/10/29 03:57:44;;;;;;;1.17;0.80;;;21.00;56.60;;;;;;5037347;28;20033;-65
2023/10/29 04:00:10;;;;;;;1.65;0.90;;;21.00;56.70;;;;;;5039671;28;20524;-65
2023/10/29 04:02:36;;;;;;;1.50;0.90;;;21.00;56.70;;;;;;5039206;28;20029;-65
2023/10/29 04:05:02;;;;;;;1.25;0.80;;;20.90;56.60;;;;;;5039212;28;20035;-64
2023/10/29 04:07:29;;;;;;;1.20;0.90;;;20.90;56.60;;;;;;5039909;28;20418;-64
2023/10/29 04:09:54;;;;;;;1.50;0.90;;;20.90;56.60;;;;;;5037975;28;20514;-66
2023/10/29 04:12:20;;;;;;;1.45;1.00;;;20.90;56.60;;;;;;5036617;28;20032;-66
2023/10/29 04:14:46;;;;;;;1.48;0.80;;;21.00;56.70;;;;;;5038992;28;20392;-64
2023/10/29 04:17:11;;;;;;;1.73;1.00;;;20.90;56.60;;;;;;5041030;28;20085;-65
2023/10/29 04:19:37;;;;;;;1.42;0.90;;;20.90;56.60;;;;;;5037067;28;20033;-64
2023/10/29 04:22:03;;;;;;;1.52;0.90;;;20.90;56.60;;;;;;5041329;28;20025;-64
2023/10/29 04:24:29;;;;;;;2.35;0.95;;;20.90;56.60;;;;;;5039551;28;20088;-67
2023/10/29 04:26:55;;;;;;;1.05;0.80;;;20.90;56.60;;;;;;5038882;28;20501;-65
2023/10/29 04:29:21;;;;;;;1.27;0.90;;;20.90;56.60;;;;;;5037204;28;20380;-65
2023/10/29 04:31:47;;;;;;;1.30;0.88;;;20.90;56.60;;;;;;5039857;28;20035;-65
2023/10/29 04:34:13;;;;;;;1.67;1.02;;;20.90;56.60;;;;;;5039049;28;20028;-65
2023/10/29 04:36:42;;;;;;;1.20;0.80;;;20.90;56.60;;;;;;5038257;28;20492;-64
2023/10/29 04:39:08;;;;;;;1.17;0.80;;;20.90;56.60;;;;;;5037281;28;20040;-64
2023/10/29 04:41:34;;;;;;;1.48;0.88;;;20.90;56.70;;;;;;5039807;28;20037;-65
2023/10/29 04:44:00;;;;;;;2.08;0.95;;;20.90;56.60;;;;;;5037833;28;20025;-65
2023/10/29 04:46:25;;;;;;;1.45;0.90;;;20.90;56.70;;;;;;5037121;28;20166;-67
2023/10/29 04:48:51;;;;;;;1.83;1.00;;;20.90;56.70;;;;;;5037165;28;20032;-68
2023/10/29 04:51:16;;;;;;;1.48;0.80;;;20.90;56.60;;;;;;5038323;28;20037;-67
2023/10/29 04:53:42;;;;;;;1.65;0.98;;;20.90;56.70;;;;;;5037963;28;20037;-67
2023/10/29 04:56:08;;;;;;;1.50;0.90;;;20.80;56.70;;;;;;5038565;28;20029;-67
2023/10/29 04:58:33;;;;;;;1.30;0.85;;;20.80;56.70;;;;;;5038563;28;20036;-67
2023/10/29 05:00:59;;;;;;;1.45;0.90;;;20.90;56.70;;;;;;5037435;28;20218;-67
2023/10/29 05:03:27;;;;;;;1.17;0.80;;;20.90;56.70;;;;;;5037388;28;20082;-67
2023/10/29 05:05:54;;;;;;;0.95;0.70;;;20.80;56.70;;;;;;5040055;28;20505;-67
2023/10/29 05:08:19;;;;;;;1.20;0.80;;;20.80;56.70;;;;;;5039283;28;20030;-68
2023/10/29 05:10:46;;;;;;;1.15;0.80;;;20.80;56.70;;;;;;5037997;28;20217;-67
2023/10/29 05:13:12;;;;;;;0.98;0.70;;;20.80;57.20;;;;;;5039423;28;20025;-67
2023/10/29 05:15:38;;;;;;;1.33;0.90;;;20.80;56.70;;;;;;5039911;28;20021;-67
2023/10/29 05:18:03;;;;;;;1.38;0.77;;;20.80;56.70;;;;;;5040108;28;20033;-67
2023/10/29 05:20:29;;;;;;;0.80;0.80;;;20.80;56.70;;;;;;5037930;28;20040;-67
2023/10/29 05:22:55;;;;;;;1.55;0.82;;;20.80;56.70;;;;;;5036922;28;20033;-67
2023/10/29 05:25:20;;;;;;;1.40;0.80;;;20.80;56.80;;;;;;5038694;28;20503;-67
2023/10/29 05:27:53;;;;;;;1.10;0.80;;;20.80;56.70;;;;;;5038753;28;20052;-67
2023/10/29 05:30:20;;;;;;;1.42;0.80;;;20.80;56.70;;;;;;5035305;28;20494;-67
2023/10/29 05:32:45;;;;;;;0.95;0.80;;;20.80;56.70;;;;;;5041856;28;20505;-67
2023/10/29 05:35:11;;;;;;;1.00;0.65;;;20.80;56.70;;;;;;5038968;28;20029;-64
2023/10/29 05:37:37;;;;;;;0.90;0.68;;;20.80;56.80;;;;;;5037763;28;20389;-65
2023/10/29 05:40:04;;;;;;;0.70;0.65;;;20.80;56.80;;;;;;5039809;28;20108;-65
2023/10/29 05:42:33;;;;;;;1.23;0.80;;;20.80;56.80;;;;;;5037060;28;20042;-65
2023/10/29 05:44:59;;;;;;;1.45;0.82;;;20.80;56.80;;;;;;5037030;28;20520;-64
2023/10/29 05:47:25;;;;;;;1.23;0.70;;;20.70;56.70;;;;;;5038957;28;20053;-65
2023/10/29 05:49:50;;;;;;;1.30;0.80;;;20.80;56.80;;;;;;5039714;28;20110;-65
2023/10/29 05:52:16;;;;;;;1.30;0.80;;;20.70;56.70;;;;;;5039010;28;20021;-65
2023/10/29 05:54:45;;;;;;;1.10;0.85;;;20.70;56.70;;;;;;5036747;28;20147;-65
2023/10/29 05:57:11;;;;;;;1.60;0.90;;;20.70;56.70;;;;;;5036511;28;20790;-66
2023/10/29 05:59:36;;;;;;;1.13;0.70;;;20.70;56.70;;;;;;5036566;28;20067;-66
2023/10/29 06:02:02;;;;;;;1.20;0.80;;;20.70;56.70;;;;;;5036540;28;20041;-66
2023/10/29 06:04:28;;;;;;;1.27;0.85;;;20.70;56.70;;;;;;5038232;28;20431;-66
2023/10/29 06:06:53;;;;;;;1.40;0.85;;;20.70;56.70;;;;;;5036988;28;20032;-66
2023/10/29 06:09:19;;;;;;;1.23;0.80;;;20.70;56.70;;;;;;5033664;28;20536;-66
2023/10/29 06:11:45;;;;;;;1.40;1.00;;;20.70;56.70;;;;;;5038911;28;20192;-66
2023/10/29 06:14:10;;;;;;;0.77;0.70;;;20.70;56.70;;;;;;5038895;28;20128;-66
2023/10/29 06:16:37;;;;;;;1.10;0.82;;;20.70;56.80;;;;;;5037888;28;20545;-66
2023/10/29 06:19:03;;;;;;;1.00;0.70;;;20.70;56.80;;;;;;5035093;28;20029;-66
2023/10/29 06:21:29;;;;;;;0.77;0.68;;;20.70;56.80;;;;;;5037961;28;20132;-66
2023/10/29 06:23:55;;;;;;;0.95;0.70;;;20.70;56.80;;;;;;5038134;28;20103;-66
2023/10/29 06:26:20;;;;;;;1.02;0.73;;;20.70;57.30;;;;;;5037893;28;20037;-66
2023/10/29 06:28:46;;;;;;;1.17;0.80;;;20.70;56.80;;;;;;5036992;28;20049;-66
2023/10/29 06:31:12;;;;;;;1.55;0.80;;;20.70;56.80;;;;;;5037834;28;20033;-66
2023/10/29 06:33:39;;;;;;;1.20;0.77;;;20.70;56.80;;;;;;5039024;28;20013;-66
2023/10/29 06:36:05;;;;;;;1.30;0.70;;;20.70;56.80;;;;;;5042316;28;20048;-66
2023/10/29 06:38:31;;;;;;;0.88;0.70;;;20.70;56.80;;;;;;5040851;28;20037;-66
2023/10/29 06:40:56;;;;;;;0.90;0.80;;;20.70;56.80;;;;;;5039930;28;20433;-66
2023/10/29 06:43:22;;;;;;;0.70;0.70;;;20.70;56.80;;;;;;5040974;28;20022;-66
2023/10/29 06:45:48;;;;;;;0.70;0.60;;;20.70;56.80;;;;;;5040464;28;20440;-66
2023/10/29 06:48:13;;;;;;;0.80;0.70;;;20.60;56.80;;;;;;5042065;28;20029;-66
2023/10/29 06:50:44;;;;;;;1.30;0.80;;;20.70;56.80;;;;;;5042592;28;20029;-66
2023/10/29 06:53:10;;;;;;;1.20;0.70;;;20.60;56.80;;;;;;5041220;28;20045;-66
2023/10/29 06:55:37;;;;;;;0.73;0.70;;;20.60;56.80;;;;;;5039093;28;20442;-66
2023/10/29 06:58:03;;;;;;;1.23;0.77;;;20.60;56.80;;;;;;5041087;28;20036;-66
2023/10/29 07:00:29;;;;;;;0.75;0.60;;;20.60;56.80;;;;;;5039305;28;20185;-66
2023/10/29 07:02:55;;;;;;;0.82;0.70;;;20.60;56.80;;;;;;5039636;28;20029;-66
2023/10/29 07:05:21;;;;;;;0.95;0.70;;;20.60;56.80;;;;;;5044011;28;20029;-67
2023/10/29 07:07:47;;;;;;;1.05;0.70;;;20.60;56.80;;;;;;5040962;28;20421;-67
2023/10/29 07:10:13;;;;;;;1.35;0.80;;;20.60;56.80;;;;;;5039130;28;20044;-68
2023/10/29 07:12:38;;;;;;;0.98;0.70;;;20.60;56.80;;;;;;5040713;28;20234;-68
2023/10/29 07:15:04;;;;;;;1.13;0.90;;;20.60;56.70;;;;;;5040580;28;20112;-67
2023/10/29 07:17:30;;;;;;;1.25;0.95;;;20.60;56.70;;;;;;5040818;28;20090;-67
2023/10/29 07:19:56;;;;;;;1.00;0.73;;;20.60;56.70;;;;;;5042579;28;20487;-67
2023/10/29 07:22:21;;;;;;;1.42;0.80;;;20.60;56.70;;;;;;5041456;28;20059;-67
2023/10/29 07:24:47;;;;;;;1.08;0.80;;;20.60;56.70;;;;;;5040625;28;20036;-67
2023/10/29 07:27:12;;;;;;;1.15;0.82;;;20.60;56.70;;;;;;5039661;28;20033;-68
2023/10/29 07:29:38;;;;;;;1.63;1.13;;;20.60;56.70;;;;;;5040648;28;20040;-68
2023/10/29 07:32:04;;;;;;;1.23;0.90;;;20.60;56.70;;;;;;5037183;28;20123;-67
2023/10/29 07:34:30;;;;;;;1.17;0.90;;;20.60;56.70;;;;;;5038743;28;20041;-67
2023/10/29 07:36:55;;;;;;;0.80;0.70;;;20.60;56.70;;;;;;5040369;28;20029;-67
2023/10/29 07:39:21;;;;;;;0.93;0.75;;;20.60;56.70;;;;;;5039701;28;20033;-67
2023/10/29 07:41:46;;;;;;;1.10;0.80;;;20.50;56.60;;;;;;5040776;28;20032;-68
2023/10/29 07:44:12;;;;;;;1.10;0.80;;;20.60;56.70;;;;;;5038386;28;20541;-67
2023/10/29 07:46:38;;;;;;;1.55;0.80;;;20.60;56.70;;;;;;5041067;28;20044;-67
2023/10/29 07:49:03;;;;;;;1.10;0.75;;;20.50;56.70;;;;;;5038943;28;20485;-67
2023/10/29 07:51:29;;;;;;;0.77;0.70;;;20.60;56.70;;;;;;5040193;28;20095;-68
2023/10/29 07:53:55;;;;;;;1.00;0.70;;;20.50;56.70;;;;;;5038030;28;20029;-67
2023/10/29 07:56:21;;;;;;;0.93;0.70;;;20.50;56.70;;;;;;5039650;28;20061;-66
2023/10/29 07:58:47;;;;;;;0.85;0.70;;;20.60;56.70;;;;;;5040081;28;20104;-66
2023/10/29 08:01:14;;;;;;;1.15;0.77;;;20.50;56.70;;;;;;5038037;28;20033;-66
2023/10/29 08:03:41;;;;;;;1.60;0.80;;;20.50;56.70;;;;;;5040351;28;20033;-66
2023/10/29 08:06:07;;;;;;;1.50;0.90;;;20.50;56.70;;;;;;5040606;28;20083;-66
2023/10/29 08:08:33;;;;;;;1.00;0.70;;;20.50;56.70;;;;;;5040858;28;20032;-66
2023/10/29 08:10:59;;;;;;;1.08;0.70;;;20.50;56.70;;;;;;5039829;28;20452;-66
2023/10/29 08:13:24;;;;;;;1.30;0.82;;;20.50;56.70;;;;;;5039945;28;20147;-66
2023/10/29 08:15:50;;;;;;;0.75;0.70;;;20.50;56.80;;;;;;5041192;28;20354;-66
2023/10/29 08:18:16;;;;;;;0.88;0.70;;;20.50;56.70;;;;;;5037393;28;20033;-66
2023/10/29 08:20:41;;;;;;;1.20;0.80;;;20.50;56.70;;;;;;5037246;28;20041;-66
2023/10/29 08:23:07;;;;;;;0.80;0.80;;;20.50;56.70;;;;;;5039429;28;20025;-66
2023/10/29 08:25:36;;;;;;;1.05;0.80;;;20.50;56.70;;;;;;5037682;28;20560;-67
2023/10/29 08:28:02;;;;;;;0.80;0.80;;;20.50;56.70;;;;;;5038670;28;20120;-66
2023/10/29 08:30:31;;;;;;;1.65;0.90;;;20.50;56.70;;;;;;5037263;28;20098;-66
2023/10/29 08:32:56;;;;;;;1.33;0.75;;;20.50;56.80;;;;;;5035983;28;20071;-66
2023/10/29 08:35:22;;;;;;;0.90;0.70;;;20.50;56.80;;;;;;5041282;28;20430;-66
2023/10/29 08:37:49;;;;;;;1.60;0.90;;;20.50;56.80;;;;;;5039494;28;20056;-66
2023/10/29 08:40:14;;;;;;;0.93;0.70;;;20.50;56.80;;;;;;5037943;28;20148;-66
2023/10/29 08:42:40;;;;;;;1.02;0.80;;;20.50;56.80;;;;;;5036881;28;20115;-67
2023/10/29 08:45:06;;;;;;;0.85;0.70;;;20.50;57.30;;;;;;5037338;28;20040;-66
2023/10/29 08:47:31;;;;;;;1.10;0.80;;;20.50;56.80;;;;;;5038453;28;20562;-66
2023/10/29 08:49:58;;;;;;;1.30;0.80;;;20.50;56.80;;;;;;5038415;28;20049;-66
2023/10/29 08:52:23;;;;;;;1.25;0.90;;;20.50;56.80;;;;;;5040022;28;20037;-66
2023/10/29 08:54:49;;;;;;;1.00;0.80;;;20.50;56.80;;;;;;5041116;28;20040;-66
2023/10/29 08:57:15;;;;;;;0.82;0.65;;;20.50;56.80;;;;;;5038036;28;20028;-66
2023/10/29 08:59:41;;;;;;;1.27;0.88;;;20.50;56.90;;;;;;5039082;28;20369;-67
2023/10/29 09:02:08;;;;;;;1.13;0.70;;;20.50;56.90;;;;;;5038331;28;20036;-66
2023/10/29 09:04:39;;;;;;;1.20;0.80;;;20.50;56.90;;;;;;5038302;28;20025;-66
2023/10/29 09:07:05;;;;;;;1.55;0.90;;;20.50;56.90;;;;;;5038955;28;20041;-65
2023/10/29 09:09:31;;;;;;;1.15;0.90;;;20.40;56.80;;;;;;5038548;28;20032;-65
2023/10/29 09:11:57;;;;;;;1.23;0.80;;;20.50;56.90;;;;;;5038388;28;20018;-65
2023/10/29 09:14:23;;;;;;;1.73;0.70;;;20.50;56.90;;;;;;5039125;28;20033;-63
2023/10/29 09:16:49;;;;;;;0.93;0.70;;;20.50;57.00;;;;;;5036385;28;20130;-64
2023/10/29 09:19:15;;;;;;;1.08;0.80;;;20.40;56.90;;;;;;5036263;28;20120;-64
2023/10/29 09:21:41;;;;;;;1.25;0.80;;;20.40;56.90;;;;;;5037751;28;20055;-64
2023/10/29 09:24:07;;;;;;;0.98;0.70;;;20.50;57.00;;;;;;5037396;28;20496;-65
2023/10/29 09:26:33;;;;;;;1.05;0.77;;;20.40;56.90;;;;;;5038012;28;20037;-64
2023/10/29 09:29:00;;;;;;;1.10;0.70;;;20.50;57.00;;;;;;5038612;28;20100;-64
2023/10/29 09:31:26;;;;;;;0.93;0.73;;;20.40;57.00;;;;;;5036951;28;20498;-64
2023/10/29 09:33:51;;;;;;;1.20;0.70;;;20.40;57.00;;;;;;5037196;28;20116;-63
2023/10/29 09:36:18;;;;;;;0.90;0.80;;;20.40;57.00;;;;;;5038469;28;20029;-63
2023/10/29 09:38:44;;;;;;;0.98;0.70;;;20.40;57.00;;;;;;5038237;28;20029;-66
2023/10/29 09:41:09;;;;;;;1.48;1.00;;;20.50;57.10;;;;;;5039447;28;20044;-66
2023/10/29 09:43:42;;;;;;;1.30;1.00;;;20.50;57.40;;;;;;5037288;28;20032;-65
2023/10/29 09:46:10;;;;;;;1.90;1.10;;;20.50;58.10;;;;;;5035657;28;20563;-65
2023/10/29 09:48:42;;;;;;;1.92;1.10;;;20.50;57.50;;;;;;5036623;28;20029;-63
2023/10/29 09:51:07;;;;;;;2.15;1.00;;;20.60;57.60;;;;;;5039417;28;20039;-65
2023/10/29 09:53:37;;;;;;;1.27;0.90;;;20.70;57.70;;;;;;5037261;28;20030;-64
2023/10/29 09:56:07;;;;;;;1.52;1.00;;;20.70;57.60;;;;;;5037232;28;20029;-64
2023/10/29 09:58:34;;;;;;;1.58;1.02;;;20.70;57.50;;;;;;5037844;28;20025;-64
2023/10/29 10:01:01;;;;;;;1.85;1.10;;;20.80;57.50;;;;;;5037357;28;20036;-63
2023/10/29 10:03:27;;;;;;;2.42;1.05;;;20.80;57.40;;;;;;5036758;28;20029;-64
2023/10/29 10:05:53;;;;;;;1.63;0.90;;;20.90;57.40;;;;;;5037663;28;20171;-63
2023/10/29 10:08:26;;;;;;;2.80;1.27;;;20.90;57.30;;;;;;5039849;28;20362;-64
2023/10/29 10:10:52;;;;;;;1.65;1.10;;;20.90;57.30;;;;;;5042103;28;20536;-64
2023/10/29 10:13:34;;;;;;;2.28;1.00;;;21.00;57.30;;;;;;5042111;28;20436;-63
2023/10/29 10:16:10;;;;;;;1.75;0.90;;;21.00;57.20;;;;;;5040492;28;20049;-64
2023/10/29 10:18:57;;;;;;;1.98;1.10;;;21.10;57.20;;;;;;5040053;28;20037;-64
2023/10/29 10:21:44;;;;;;;1.77;0.98;;;21.10;57.20;;;;;;5040527;28;20033;-65
2023/10/29 10:24:10;;;;;;;1.80;1.10;;;21.10;57.10;;;;;;5041448;28;20439;-64
2023/10/29 10:26:37;;;;;;;1.73;1.10;;;21.20;57.10;;;;;;5040786;28;20072;-64
2023/10/29 10:29:07;;;;;;;1.75;0.95;;;21.20;57.10;;;;;;5041846;28;20484;-66
2023/10/29 10:31:35;;;;;;;1.45;0.90;;;21.20;57.00;;;;;;5039643;28;20060;-64
2023/10/29 10:34:17;;;;;;;1.85;1.08;;;21.20;57.00;;;;;;5038774;28;20394;-64
2023/10/29 10:36:50;;;;;;;1.75;1.05;;;21.30;57.00;;;;;;5056355;28;20036;-65
2023/10/29 10:39:25;;;;;;;1.92;0.90;;;21.30;57.00;;;;;;5042929;28;20154;-64
2023/10/29 10:41:51;;;;;;;2.03;1.00;;;21.30;56.80;;;;;;5041759;28;20397;-63
2023/10/29 10:44:20;;;;;;;1.77;0.90;;;21.30;56.80;;;;;;5040164;28;20175;-64
2023/10/29 10:46:47;;;;;;;;;;;21.40;56.80;;;;;;5039698;28;20572;-63
2023/10/29 10:49:13;;;;;;;2.10;1.20;;;21.40;56.80;;;;;;5038434;28;19908;-64
2023/10/29 10:51:40;;;;;;;2.05;1.10;;;21.40;56.80;;;;;;5040069;28;20067;-65
2023/10/29 10:54:06;;;;;;;1.83;0.98;;;21.40;56.60;;;;;;5042058;28;20049;-63
2023/10/29 10:56:36;;;;;;;2.00;1.20;;;21.50;56.60;;;;;;5039528;28;20032;-63
2023/10/29 10:59:04;;;;;;;2.72;1.30;;;21.50;56.60;;;;;;5040901;28;20033;-64
2023/10/29 11:01:31;;;;;;;4.32;1.27;;;21.50;56.60;;;;;;5041004;28;20572;-63
2023/10/29 11:03:59;;;;;;;1.67;0.95;;;21.50;56.50;;;;;;5038968;28;20119;-63
2023/10/29 11:06:25;;;;;;;1.77;1.05;;;21.60;56.60;;;;;;5041486;28;20069;-64
2023/10/29 11:08:53;;;;;;;1.67;1.00;;;21.60;56.80;;;;;;5039802;28;20029;-63
2023/10/29 11:11:20;;;;;;;2.42;1.30;;;21.60;56.70;;;;;;5040760;28;20021;-63
2023/10/29 11:13:46;;;;;;;2.05;1.10;;;21.60;56.70;;;;;;5041694;28;20033;-64
2023/10/29 11:16:23;;;;;;;2.05;1.00;;;21.60;56.80;;;;;;5039171;28;20021;-63
2023/10/29 11:18:49;;;;;;;2.10;1.27;;;21.60;56.80;;;;;;5040215;28;20138;-64
2023/10/29 11:21:32;;;;;;;1.58;1.00;;;21.70;56.80;;;;;;5039990;28;20637;-64
2023/10/29 11:24:17;;;;;;;2.08;0.98;;;21.70;56.80;;;;;;5043166;28;20026;-63
2023/10/29 11:26:43;;;;;;;1.63;1.10;;;21.70;56.70;;;;;;5038984;28;20117;-66
2023/10/29 11:29:09;;;;;;;1.63;1.10;;;21.70;56.70;;;;;;5037493;28;20100;-64
2023/10/29 11:31:35;;;;;;;2.25;1.20;;;21.70;56.60;;;;;;5039936;28;20079;-64
2023/10/29 11:34:01;;;;;;;1.45;1.10;;;21.70;56.60;;;;;;5038285;28;20401;-63
2023/10/29 11:36:41;;;;;;;1.35;1.00;;;21.80;56.60;;;;;;5039189;28;20041;-63
2023/10/29 11:39:15;;;;;;;2.47;1.20;;;21.80;56.60;;;;;;5043188;28;20140;-63
2023/10/29 11:41:42;;;;;;;2.05;1.20;;;21.80;56.60;;;;;;5039877;28;20595;-63
2023/10/29 11:44:25;;;;;;;1.90;1.10;;;21.80;56.60;;;;;;5039214;28;20053;-63
2023/10/29 11:47:03;;;;;;;1.65;1.10;;;21.80;56.60;;;;;;5040312;28;20524;-63
2023/10/29 11:49:30;;;;;;;1.88;1.08;;;21.80;56.60;;;;;;5038053;28;20023;-63
2023/10/29 11:52:02;;;;;;;1.73;1.10;;;21.80;56.60;;;;;;5041510;28;20068;-63
2023/10/29 11:54:32;;;;;;;1.70;1.10;;;21.80;56.60;;;;;;5038507;28;20033;-63
2023/10/29 11:56:58;;;;;;;1.65;1.05;;;21.80;56.60;;;;;;5040014;28;20041;-64
2023/10/29 11:59:25;;;;;;;1.63;1.10;;;21.90;56.70;;;;;;5040892;28;20033;-64
2023/10/29 12:01:51;;;;;;;2.55;1.30;;;21.80;56.70;;;;;;5040002;28;20021;-63
2023/10/29 12:04:17;;;;;;;1.75;1.17;;;21.90;56.70;;;;;;5037970;28;20025;-64
2023/10/29 12:06:47;;;;;;;1.77;1.13;;;21.90;56.70;;;;;;5040559;28;20056;-63
2023/10/29 12:09:24;;;;;;;1.88;1.10;;;21.90;57.20;;;;;;5037897;28;20135;-63
2023/10/29 12:11:55;;;;;;;1.85;1.20;;;21.90;56.70;;;;;;5039564;28;20537;-63
2023/10/29 12:14:40;;;;;;;1.60;0.95;;;21.90;56.70;;;;;;5037231;28;20052;-64
2023/10/29 12:17:09;;;;;;;3.08;1.02;;;21.90;56.90;;;;;;5038814;28;20472;-63
2023/10/29 12:19:44;;;;;;;2.40;1.10;;;21.90;56.80;;;;;;5038082;28;20029;-63
2023/10/29 12:22:29;;;;;;;2.05;1.10;;;21.90;56.70;;;;;;5039318;28;20048;-64
2023/10/29 12:25:00;;;;;;;2.83;1.20;;;21.90;56.70;;;;;;5039087;28;20370;-64
2023/10/29 12:27:26;;;;;;;1.95;1.10;;;22.00;56.80;;;;;;5038732;28;20029;-63
2023/10/29 12:29:52;;;;;;;1.42;0.90;;;22.00;56.70;;;;;;5039038;28;20017;-63
2023/10/29 12:32:25;;;;;;;2.22;1.10;;;22.10;56.60;;;;;;5039049;28;20036;-63
2023/10/29 12:34:54;;;;;;;3.10;1.25;;;22.10;56.60;;;;;;5037089;28;20030;-63
2023/10/29 12:37:21;;;;;;;1.95;1.00;;;22.10;56.60;;;;;;5038829;28;20037;-64
2023/10/29 12:39:48;;;;;;;4.13;1.30;;;22.10;56.50;;;;;;5038859;28;20487;-64
2023/10/29 12:42:13;;;;;;;1.77;1.00;;;22.10;56.50;;;;;;5038560;28;20118;-64
2023/10/29 12:44:49;;;;;;;1.58;1.00;;;22.10;57.00;;;;;;5037331;28;20501;-63
2023/10/29 12:47:18;;;;;;;3.33;1.30;;;22.10;56.50;;;;;;5039739;28;20025;-63